Portada
METAR-TAF:

METAR-TAF

Aeropuertos :

St. Charles County Airport (Smart Field)

Saint Charles, Misuri, Estados Unidos

latitud: 38-55-50N, longitud: 090-25-57W, altitud: 133 m

Observación

El informe se hizo hace 52 minutos, a las 13:54 UTC
Viento 7 kt del suroeste
Temperatura 28°C
Humedad 66%
Presión 1026 hPa
Visibilidad: 16.1 km
Cielo despejado

METAR: KSET 201354Z AUTO 23007KT 10SM CLR 28/21 A3029 RMK AO2 SLP250 T02830206

Hora: 09:46 (14:46 UTC)


TAF: falta

Observaciones y pronósticos meteorológicos de más de 4000 aeropuertos (mensajes METAR y TAF).

Los puntos amarillos y rojos representan las estaciones disponibles.

Ponga el ratón en el punto deseado para ver el nombre de la estación.

Haga clic para ver las observaciones y los pronósticos meteorológicos.

Para cambiar el mapa : haga clic en los botones verdes con una cruz de color negro para hacer un zoom, en el botón verde con un guión para alejar o en las flechas verdes para mapas adyacentes.


METAR-TAF: